Flight Track Log - Related Links

Times and Time Zones

All times are in EDT time to prevent confusion due to time zone crossing. See the CHH7741 flight status page for this flight to view local times or setup timezone preferences in your user account.


Time Position Orientation Groundspeed Altitude Reporting Facility
EDT Latitude Longitude Course Direction KTS MPH feet Rate Location/Type
Thu 07:06:00 PM 22.6902 113.7273 303° West  Level Estimated
Thu 07:07:00 PM 22.7408 113.6422 303° West  Level Estimated
Thu 07:08:00 PM 22.7914 113.5571 303° West  Level Estimated
Thu 07:09:00 PM 22.8419 113.4718 303° West  Level Estimated
Thu 07:10:00 PM 22.8925 113.3865 303° West  Level Estimated
Thu 07:10:57 PM 22.6520 113.8060 303° West 24 28  Level FlightAware ADS-B
Thu 07:11:00 PM 22.9429 113.3011 303° West  Level Estimated
Thu 07:11:24 PM 22.6540 113.8050 335° Northwest 26 30  Level FlightAware ADS-B
Thu 07:11:53 PM 22.6530 113.8030 242° Southwest 25 29 629 Level FlightAware ADS-B
Thu 07:12:28 PM 22.6500 113.8050 148° Southeast 74 85 868 Level FlightAware ADS-B
Thu 07:12:41 PM 22.6440 113.8080 155° Southeast 135 155 1,610 Level FlightAware ADS-B
Thu 07:13:09 PM 22.6240 113.8190 153° Southeast 173 199 1,100 2,571 Climbing FlightAware ADS-B
Thu 07:13:37 PM 22.6020 113.8300 155° Southeast 184 212 2,400 2,036 Climbing FlightAware ADS-B
Thu 07:14:05 PM 22.5770 113.8430 154° Southeast 233 268 3,000 1,714 Climbing FlightAware ADS-B
Thu 07:14:33 PM 22.5500 113.8590 151° Southeast 248 285 4,000 1,179 Climbing FlightAware ADS-B
Thu 07:15:01 PM 22.5210 113.8780 149° Southeast 263 303 4,100 136 Climbing FlightAware ADS-B
Thu 07:15:17 PM 22.5110 113.8960 121° Southeast 270 311 4,100 214 Level FlightAware ADS-B
Thu 07:15:29 PM 22.5090 113.9120 98° East 275 316 4,200 1,538 Climbing FlightAware ADS-B
Thu 07:15:56 PM 22.5200 113.9460 71° East 280 322 5,100 2,786 Climbing FlightAware ADS-B
Thu 07:16:25 PM 22.5380 113.9840 63° Northeast 285 328 6,800 3,333 Climbing FlightAware ADS-B
Thu 07:16:41 PM 22.5510 114.0010 50° Northeast 292 336 7,600 3,000 Climbing FlightAware ADS-B
Thu 07:16:53 PM 22.5640 114.0120 38° Northeast 295 339 8,200 2,897 Climbing FlightAware ADS-B
Thu 07:17:10 PM 22.5840 114.0210 23° Northeast 299 344 9,000 2,786 Climbing FlightAware ADS-B
Thu 07:17:49 PM 22.6410 114.0270 North 318 366 10,800 1,200 Climbing FlightAware ADS-B
Thu 07:18:45 PM 22.7320 114.0230 358° North 355 409 10,900 1,500 Climbing FlightAware ADS-B
Thu 07:19:29 PM 22.7970 113.9950 338° Northwest 331 381 13,300 3,146 Climbing FlightAware ADS-B
Thu 07:20:07 PM 22.8500 113.9720 338° Northwest 333 383 15,200 2,857 Climbing FlightAware ADS-B
Thu 07:20:53 PM 22.9160 113.9410 337° Northwest 339 390 17,300 2,581 Climbing FlightAware ADS-B
Thu 07:21:33 PM 22.9730 113.9120 335° Northwest 347 399 18,900 1,714 Climbing FlightAware ADS-B
Thu 07:22:17 PM 23.0400 113.8770 334° Northwest 360 414 19,700 857 Climbing FlightAware ADS-B
Thu 07:22:57 PM 23.0980 113.8410 330° Northwest 362 417 20,100 1,350 Climbing FlightAware ADS-B
Thu 07:23:37 PM 23.1470 113.7920 317° Northwest 368 423 21,500 1,829 Climbing FlightAware ADS-B
Thu 07:24:19 PM 23.2000 113.7360 316° Northwest 379 436 22,600 825 Climbing FlightAware ADS-B
Thu 07:24:57 PM 23.2480 113.6860 316° Northwest 382 440 22,600  Level FlightAware ADS-B
Thu 07:25:39 PM 23.3040 113.6270 316° Northwest 416 479 22,600  Level FlightAware ADS-B
Thu 07:26:19 PM 23.3600 113.5690 316° Northwest 426 490 22,600  Level FlightAware ADS-B
Thu 07:26:55 PM 23.4120 113.5140 316° Northwest 427 491 22,600  Level FlightAware ADS-B
Thu 07:27:37 PM 23.4720 113.4510 316° Northwest 427 491 22,600 289 Level FlightAware ADS-B
Thu 07:28:18 PM 23.5290 113.3910 316° Northwest 422 486 23,000 1,786 Climbing FlightAware ADS-B
Thu 07:29:01 PM 23.5880 113.3280 316° Northwest 400 460 25,100 2,169 Climbing FlightAware ADS-B
Thu 07:29:41 PM 23.6430 113.2690 316° Northwest 415 478 26,000 1,256 Climbing FlightAware ADS-B
Thu 07:30:27 PM 23.6900 113.1880 302° West 431 496 26,900 1,129 Climbing FlightAware ADS-B
Thu 07:31:06 PM 23.7220 113.1100 294° West 439 505 27,600 600 Climbing FlightAware ADS-B
Thu 07:31:37 PM 23.7480 113.0480 295° West 441 507 27,600  Level FlightAware ADS-B
Thu 07:32:23 PM 23.7870 112.9550 295° West 442 509 27,600  Level FlightAware ADS-B
Thu 07:33:08 PM 23.8240 112.8640 294° West 442 509 27,600  Level FlightAware ADS-B
Thu 07:33:39 PM 23.8510 112.7990 294° West 442 509 27,600  Level FlightAware ADS-B
Thu 07:34:25 PM 23.8900 112.7040 294° West 440 506 27,600  Level FlightAware ADS-B
Thu 07:35:05 PM 23.9220 112.6260 294° West 440 506 27,600  Level FlightAware ADS-B
Thu 07:35:49 PM 23.9590 112.5360 294° West 439 505 27,600  Level FlightAware ADS-B
Thu 07:36:27 PM 23.9900 112.4590 294° West 437 503 27,600  Level FlightAware ADS-B
Thu 07:37:09 PM 24.0250 112.3730 294° West 436 502 27,600  Level FlightAware ADS-B
Thu 07:37:54 PM 24.0620 112.2840 294° West 437 503 27,600  Level FlightAware ADS-B
Thu 07:38:29 PM 24.0910 112.2130 294° West 438 504 27,600  Level FlightAware ADS-B
Thu 07:39:09 PM 24.1240 112.1310 294° West 438 504 27,600  Level FlightAware ADS-B
Thu 07:40:15 PM 24.1780 111.9960 294° West 438 504 27,600  Level FlightAware ADS-B
Thu 07:40:57 PM 24.2120 111.9130 294° West 439 505 27,600  Level FlightAware ADS-B
Thu 07:41:34 PM 24.2400 111.8430 294° West 439 505 27,600  Level FlightAware ADS-B
Thu 07:42:31 PM 24.2900 111.7200 294° West 439 505 27,600  Level FlightAware ADS-B
Thu 07:43:11 PM 24.3170 111.6500 293° West 439 505 27,600  Level FlightAware ADS-B
Thu 07:43:58 PM 24.3640 111.5460 296° West 439 505 27,600  Level FlightAware ADS-B
Thu 07:44:39 PM 24.4060 111.4820 306° West 439 505 27,600  Level FlightAware ADS-B
Thu 07:45:16 PM 24.4420 111.4240 304° West 439 505 27,600  Level FlightAware ADS-B
Thu 07:45:53 PM 24.4790 111.3670 306° West 439 505 27,600  Level FlightAware ADS-B
Thu 07:46:40 PM 24.5260 111.2940 305° West 439 505 27,600  Level FlightAware ADS-B
Thu 07:47:16 PM 24.5610 111.2380 305° West 439 505 27,600  Level FlightAware ADS-B
Thu 07:47:52 PM 24.5970 111.1820 305° West 439 505 27,600  Level FlightAware ADS-B
Thu 07:50:00 PM 24.6963 110.9680 297° West  Level Estimated
Thu 07:51:00 PM 24.7428 110.8675 297° West  Level Estimated
Thu 07:52:00 PM 24.7892 110.7670 297° West  Level Estimated
Thu 07:53:00 PM 24.8355 110.6664 297° West  Level Estimated
Thu 07:54:00 PM 24.8818 110.5657 297° West  Level Estimated
Thu 07:55:00 PM 24.9280 110.4650 297° West  Level Estimated
Thu 07:56:00 PM 24.9741 110.3642 297° West  Level Estimated
Thu 07:57:00 PM 25.0202 110.2633 297° West  Level Estimated
Thu 07:58:00 PM 25.0662 110.1623 297° West  Level Estimated
Thu 07:59:00 PM 25.1121 110.0612 297° West  Level Estimated
Thu 08:00:00 PM 25.1579 109.9601 297° West  Level Estimated
Thu 08:01:00 PM 25.2037 109.8589 297° West  Level Estimated
Thu 08:02:00 PM 25.2494 109.7576 297° West  Level Estimated
Thu 08:03:00 PM 25.2951 109.6562 296° West  Level Estimated
Thu 08:04:00 PM 25.3407 109.5548 296° West  Level Estimated
Thu 08:05:00 PM 25.3862 109.4533 296° West  Level Estimated
Thu 08:06:00 PM 25.4316 109.3517 296° West  Level Estimated
Thu 08:07:00 PM 25.4770 109.2501 296° West  Level Estimated
Thu 08:08:00 PM 25.5223 109.1483 296° West  Level Estimated
Thu 08:09:00 PM 25.5675 109.0465 296° West  Level Estimated
Thu 08:10:00 PM 25.6127 108.9446 296° West  Level Estimated
Thu 08:11:00 PM 25.6577 108.8427 296° West  Level Estimated
Thu 08:12:00 PM 25.7028 108.7406 296° West  Level Estimated
Thu 08:13:00 PM 25.7477 108.6385 296° West  Level Estimated
Thu 08:14:00 PM 25.7926 108.5363 296° West  Level Estimated
Thu 08:15:00 PM 25.8374 108.4340 296° West  Level Estimated
Thu 08:16:00 PM 25.8821 108.3316 296° West  Level Estimated
Thu 08:17:00 PM 25.9268 108.2292 296° West  Level Estimated
Thu 08:18:00 PM 25.9713 108.1267 296° West  Level Estimated
Thu 08:19:00 PM 26.0159 108.0241 296° West  Level Estimated
Thu 08:20:00 PM 26.0603 107.9214 296° West  Level Estimated
Thu 08:21:00 PM 26.1047 107.8187 296° West  Level Estimated
Thu 08:22:00 PM 26.1490 107.7159 296° West  Level Estimated
Thu 08:23:00 PM 26.1932 107.6130 296° West  Level Estimated
Thu 08:24:00 PM 26.2373 107.5100 296° West  Level Estimated

Login

Don't have an account? Register now (free) for customized features, flight alerts, and more!